Tiempo atmosférico en la estación meteorológica de Calasparra, Murcia (394 m.)



Fecha
DESCASC
Temp. máxima en grados centígrados (hora)
DESCASC
Temp. mínima en grados centígrados (hora)
DESCASC
Temp. media en grados centígrados
DESCASC
Racha de viento máxima en m/sg (hora)
DESCASC
Velocidad máxima media en intervalos de 10 minutos(hora)
DESCASC
Precipitaciones diarias en mm
DESCASC
Precipitaciones de 00:00 a 06:00 en mm
DESCASC
Precipitaciones de 06:00 a 12:00 en mm
DESCASC
Precipitaciones de 12:00 a 18:00 en mm
DESCASC
Precipitaciones de 18:00 a 24:00 en mm
DESCASC
10-08-2019 38.7 (15:50) 23.9 (00:00) 31.3 12.5 (16:50) 7.5 (17:00) 0 0 0 0 0
24-08-2019 32.7 (16:40) 16.7 (00:00) 24.7 9.44 (19:30) 6.11 (19:30) 0 0 0 0 0
23-08-2019 31.3 (15:50) 16.7 (00:00) 24 8.89 (18:50) 5.28 (19:40) 0 0 0 0 0
22-08-2019 31.7 (16:30) 18.1 (00:00) 24.9 9.17 (17:20) 5.28 (19:20) 0 0 0 0 0
21-08-2019 28.3 (18:10) 19.5 (00:00) 23.9 9.17 (16:30) 4.44 (19:40) 2.8 0 2.6 0.2 0
20-08-2019 34.1 (15:40) 20.5 (00:00) 27.3 14.72 (19:00) 7.78 (19:00) 10 0 0 0 10
19-08-2019 37 (14:50) 21.1 (00:00) 29.1 12.78 (17:40) 6.94 (16:00) 0 0 0 0 0
18-08-2019 37.8 (15:50) 20.5 (00:00) 29.1 11.39 (17:50) 7.5 (17:50) 0 0 0 0 0
17-08-2019 37.3 (16:20) 19.7 (00:00) 28.5 12.22 (17:20) 6.67 (17:20) 0 0 0 0 0
16-08-2019 34.7 (16:50) 18.9 (00:00) 26.8 12.5 (18:10) 7.78 (18:10) 0 0 0 0 0
15-08-2019 34.7 (16:20) 19.7 (00:00) 27.2 11.67 (19:20) 7.5 (19:20) 0 0 0 0 0
14-08-2019 34.8 (17:20) 19.9 (00:00) 27.3 10.28 (19:50) 6.39 (19:50) 0 0 0 0 0
13-08-2019 30.6 (16:10) 21.7 (00:00) 26.2 11.67 (19:30) 7.22 (19:30) 0 0 0 0 0
11-08-2019 37.7 (16:10) 22.9 (00:00) 30.3 9.72 (18:40) 6.11 (18:40) 1.2 0 0 0 1.2
26-07-2019 37.3 (16:10) 20.7 (00:00) 29 10.83 (19:00) 6.11 (19:00) 0 0 0 0 0
09-08-2019 42.4 (17:50) 20.1 (00:00) 31.3 5.28 (22:20) 3.06 (15:00) 0 0 0 0 0
08-08-2019 38.6 (15:40) 22.5 (00:00) 30.5 11.67 (19:40) 7.22 (19:40) 0 0 0 0 0
07-08-2019 40.5 (17:40) 21.1 (00:00) 30.8 6.39 (19:00) 3.61 (19:10) 0 0 0 0 0
06-08-2019 38.8 (16:10) 20.9 (00:00) 29.8 10.28 (15:10) 5 (18:50) 0 0 0 0 0
05-08-2019 36.9 (15:30) 22 (00:00) 29.5 10.83 (17:10) 6.39 (19:30) 3 0 0 0 3
04-08-2019 36.9 (16:00) 20 (00:00) 28.5 10.28 (18:00) 5.83 (18:00) 0 0 0 0 0
03-08-2019 34.5 (16:00) 21.3 (00:00) 27.9 10 (17:20) 6.11 (20:00) 0 0 0 0 0
02-08-2019 34.1 (15:10) 20.6 (00:00) 27.3 10 (16:40) 5.83 (17:20) 0 0 0 0 0
01-08-2019 36.4 (17:20) 18.5 (00:00) 27.5 9.44 (21:20) 6.39 (21:00) 0 0 0 0 0
31-07-2019 30.1 (16:40) 20.9 (00:00) 25.5 9.44 (14:40) 5.83 (15:00) 0 0 0 0 0
30-07-2019 36.4 (14:20) 20.6 (00:00) 28.5 12.78 (17:40) 7.78 (18:50) 0 0 0 0 0
29-07-2019 35.6 (17:20) 19.6 (00:00) 27.6 9.17 (19:10) 5.83 (19:10) 0 0 0 0 0
28-07-2019 33.7 (17:10) 21.3 (00:00) 27.5 10.83 (17:50) 6.39 (17:50) 0 0 0 0 0
27-07-2019 33.2 (13:40) 22 (00:00) 27.6 12.5 (18:00) 6.94 (14:40) 0 0 0 0 0
12-08-2019 33.9 (18:00) 21.1 (00:00) 27.5 11.94 (18:30) 6.67 (18:50) 0.2 0.2 0 0 0

Gráficas

Temp. máximas Temp. mínimas Temp. medias Precipitaciones Rachas de viento máximas Velocidades máximas media en intervalos de 10 minutos

Datos horarios

Fecha y hora oficial Temperatura (ºC) Velocidad del viento (km/h) Dirección del viento Racha (km/h) Dirección de racha Precipitación (mm) Presión (hPa) Tendencia (hPa) Humedad (%)
2019-08-24 23:00:00 23.9 10 Sudeste 17 Sudeste 0 -- -- 68
2019-08-24 22:00:00 24.9 15 Sudeste 26 Sudeste 0 -- -- 62
2019-08-24 21:00:00 26.4 15 Sudeste 32 Sudeste 0 -- -- 58
2019-08-24 20:00:00 28.2 19 Sudeste 34 Sudeste 0 -- -- 49
2019-08-24 19:00:00 30.7 18 Sudeste 32 Sudeste 0 -- -- 38
2019-08-24 18:00:00 32 11 Sudeste 26 Sudeste 0 -- -- 33
2019-08-24 17:00:00 32.7 8 Este 20 Norte 0 -- -- 30
2019-08-24 16:00:00 32.2 9 Norte 24 Norte 0 -- -- 26
2019-08-24 15:00:00 31.9 7 Norte 13 Este 0 -- -- 26
2019-08-24 14:00:00 29.7 5 Nordeste 13 Nordeste 0 -- -- 31
2019-08-24 13:00:00 28.4 5 Sudeste 13 Sudeste 0 -- -- 42
2019-08-24 12:00:00 26.9 4 Sudeste 10 Nordeste 0 -- -- 47
2019-08-24 11:00:00 24.6 4 Este 8 Nordeste 0 -- -- 52
2019-08-24 10:00:00 21.6 3 Noroeste 7 Noroeste 0 -- -- 60
2019-08-24 09:00:00 19.5 2 Sudeste 8 Sur 0 -- -- 68
2019-08-24 08:00:00 17.2 4 Sur 10 Sur 0 -- -- 77
2019-08-24 07:00:00 16.9 4 Sur 8 Sur 0 -- -- 78
2019-08-24 06:00:00 17.4 4 Sur 7 Sur 0 -- -- 76
2019-08-24 05:00:00 18.1 5 Sur 7 Sur 0 -- -- 74
2019-08-24 04:00:00 18.9 5 Sur 8 Sur 0 -- -- 74
2019-08-24 03:00:00 19.4 0 Calma 6 Sudeste 0 -- -- 70
2019-08-24 02:00:00 20.8 5 Sudoeste 8 Sudoeste 0 -- -- 64
2019-08-24 01:00:00 21.6 4 Sudeste 12 Sur 0 -- -- 62
2019-08-24 00:00:00 22.8 6 Sur 14 Sudeste 0 -- -- 61
2019-08-23 23:00:00 23.4 10 Sudeste 19 Sudeste 0 -- -- 62
2019-08-23 22:00:00 24.4 14 Sudeste 27 Sudeste 0 -- -- 59
2019-08-23 21:00:00 26.3 13 Sudeste 29 Sudeste 0 -- -- 49
2019-08-23 20:00:00 28.3 17 Sudeste 32 Sudeste 0 -- -- 41
2019-08-23 19:00:00 30 17 Sudeste 32 Sudeste 0 -- -- 32
2019-08-23 18:00:00 30.7 14 Sudeste 31 Sudeste 0 -- -- 29
2019-08-23 17:00:00 31 12 Sudeste 27 Sudeste 0 -- -- 29
2019-08-23 16:00:00 31.2 13 Sudeste 24 Sudeste 0 -- -- 31
2019-08-23 15:00:00 31 10 Sudeste 24 Sudeste 0 -- -- 30
2019-08-23 14:00:00 29.5 10 Este 25 Sudeste 0 -- -- 39
2019-08-23 13:00:00 27.9 7 Nordeste 15 Nordeste 0 -- -- 45
2019-08-23 12:00:00 26.7 4 Sudeste 9 Este 0 -- -- 48
2019-08-23 11:00:00 24.2 4 Nordeste 9 Norte 0 -- -- 61
2019-08-23 10:00:00 21.8 3 Nordeste 8 Nordeste -- -- -- 64
2019-08-23 09:00:00 19.1 3 Sudeste 6 Sudoeste 0 -- -- 70
2019-08-23 08:00:00 17.2 3 Sur 6 Sudeste 0 -- -- 76
2019-08-23 07:00:00 17.1 3 Sur 9 Sur 0 -- -- 77
2019-08-23 06:00:00 17.1 5 Sur 9 Sur 0 -- -- 77
2019-08-23 05:00:00 17.9 5 Sur 8 Sur 0 -- -- 74
2019-08-23 04:00:00 18.5 0 Calma 10 Sur 0 -- -- 73
2019-08-23 03:00:00 19.8 3 Sudeste 7 Sur 0 -- -- 74
2019-08-23 02:00:00 20.6 4 Sur 9 Sudeste 0 -- -- 75
2019-08-23 01:00:00 21.1 4 Sudeste 9 Sudeste 0 -- -- 74
2019-08-23 00:00:00 22 6 Sudeste 19 Sudeste 0 -- -- 69
2019-08-22 23:00:00 22.9 13 Sudeste 18 Sur 0 -- -- 66
2019-08-22 22:00:00 24.3 12 Sudeste 21 Sudeste 0 -- -- 57
2019-08-22 21:00:00 25.7 14 Sudeste 30 Sudeste 0 -- -- 54
2019-08-22 20:00:00 27.2 16 Sudeste 31 Sudeste 0 -- -- 49
2019-08-22 19:00:00 28.7 18 Sudeste 32 Sudeste 0 -- -- 48
2019-08-22 18:00:00 29.9 17 Sudeste 33 Sudeste 0 -- -- 43
2019-08-22 17:00:00 31.1 13 Sudeste 29 Sudeste 0 -- -- 39
2019-08-22 16:00:00 30.9 10 Sudeste 20 Sudeste 0 -- -- 39
2019-08-22 15:00:00 29.7 5 Norte 15 Sudeste 0 -- -- 43
2019-08-22 14:00:00 29.5 4 Sudeste 14 Noroeste 0 -- -- 46
2019-08-22 13:00:00 27.8 5 Sudeste 12 Nordeste 0 -- -- 52
2019-08-22 12:00:00 26.7 4 Este 9 Nordeste 0 -- -- 56
2019-08-22 11:00:00 24.2 3 Norte 10 Noroeste 0 -- -- 64
2019-08-22 10:00:00 21.9 4 Noroeste 9 Noroeste 0 -- -- 72
2019-08-22 09:00:00 19.6 5 Noroeste 10 Oeste 0 -- -- 82
2019-08-22 08:00:00 18.5 3 Oeste 6 Noroeste 0 -- -- 88
2019-08-22 07:00:00 18.2 0 Calma 4 Norte 0 -- -- 89
2019-08-22 06:00:00 18.9 0 Calma 4 Oeste 0 -- -- 87
2019-08-22 05:00:00 19.3 2 Sur 6 Sur 0 -- -- 86
2019-08-22 04:00:00 20.1 2 Sudeste 8 Sudeste 0 -- -- 83
2019-08-22 03:00:00 20.7 4 Sur 10 Sur 0 -- -- 81
2019-08-22 02:00:00 21.3 5 Sur 8 Sur 0 -- -- 79
2019-08-22 01:00:00 22.1 2 Sudoeste 9 Sur 0 -- -- 72
2019-08-22 00:00:00 22.1 5 Sur 10 Sur 0 -- -- 70
2019-08-21 23:00:00 22.4 3 Sudeste 17 Sur 0 -- -- 66
2019-08-21 22:00:00 23.2 12 Sur 21 Sur 0 -- -- 62
2019-08-21 21:00:00 24.6 10 Sur 25 Sudeste 0 -- -- 54
2019-08-21 20:00:00 26 11 Sudeste 24 Sudeste 0 -- -- 50
2019-08-21 19:00:00 27.2 8 Sudeste 16 Sudeste 0 -- -- 48
2019-08-21 18:00:00 28 9 Este 30 Este 0 -- -- 49
2019-08-21 17:00:00 27.8 12 Sudeste 33 Sudeste 0 -- -- 51
2019-08-21 16:00:00 26.8 4 Nordeste 9 Nordeste 0 -- -- 62
2019-08-21 15:00:00 24.7 4 Noroeste 11 Norte 0 -- -- 73
2019-08-21 14:00:00 23.6 4 Sudoeste 8 Sudoeste 0.2 -- -- 83
2019-08-21 13:00:00 22.4 6 Nordeste 10 Norte 0 -- -- 88
2019-08-21 12:00:00 21.4 3 Norte 9 Noroeste 0.8 -- -- 92
2019-08-21 11:00:00 20.8 6 Noroeste 12 Noroeste 0 -- -- 93
2019-08-21 10:00:00 19.9 5 Norte 12 Este 0.2 -- -- 94
2019-08-21 09:00:00 19.6 8 Nordeste 25 Nordeste 1 -- -- 94
2019-08-21 08:00:00 20.7 8 Nordeste 14 Nordeste 0.6 -- -- 93
2019-08-21 07:00:00 21.4 7 Nordeste 12 Norte 0 -- -- 87
2019-08-21 06:00:00 21.7 4 Norte 8 Oeste 0 -- -- 90
2019-08-21 05:00:00 21.7 5 Noroeste 6 Noroeste 0 -- -- 88
2019-08-21 04:00:00 21.7 0 Calma 5 Oeste 0 -- -- 87
2019-08-21 03:00:00 21.6 0 Calma 3 Nordeste 0 -- -- 86
2019-08-21 02:00:00 21.4 2 Nordeste 9 Nordeste 0 -- -- 87
2019-08-21 01:00:00 21.2 5 Norte 10 Norte 0 -- -- 89
2019-08-21 00:00:00 21.1 6 Nordeste 12 Norte 0 -- -- 89
2019-08-20 23:00:00 20.8 5 Norte 10 Nordeste 0 -- -- 91
2019-08-20 22:00:00 20.6 6 Nordeste 15 Nordeste 2.6 -- -- 91
2019-08-20 21:00:00 21.1 10 Nordeste 37 Nordeste 7.4 -- -- 90
2019-08-20 20:00:00 24 20 Nordeste 48 Este 0 -- -- 71
2019-08-20 19:00:00 28.5 28 Este 53 Nordeste 0 -- -- 54
2019-08-20 18:00:00 32 21 Sudeste 39 Sudeste 0 -- -- 45
2019-08-20 17:00:00 32.8 15 Sudeste 26 Sudeste 0 -- -- 41
2019-08-20 16:00:00 33.6 7 Este 22 Este 0 -- -- 38
2019-08-20 15:00:00 32.7 12 Nordeste 22 Nordeste 0 -- -- 44
2019-08-20 14:00:00 31.3 9 Nordeste 19 Este 0 -- -- 47
2019-08-20 13:00:00 30.3 5 Este 14 Nordeste 0 -- -- 52
2019-08-20 12:00:00 28.6 5 Nordeste 12 Nordeste 0 -- -- 58
2019-08-20 11:00:00 27 5 Sudeste 12 Sudeste 0 -- -- 64
2019-08-20 10:00:00 25.5 7 Sudeste 12 Sudeste 0 -- -- 69
2019-08-20 09:00:00 24.3 4 Sudeste 6 Sudeste 0 -- -- 79
2019-08-20 08:00:00 22.4 0 Calma 6 Oeste 0 -- -- 89
2019-08-20 07:00:00 22.9 2 Nordeste 5 Este 0 -- -- 86
2019-08-20 06:00:00 23.3 4 Sur 10 Sur 0 -- -- 83
2019-08-20 05:00:00 23 2 Este 9 Sur 0 -- -- 84
2019-08-20 04:00:00 23.4 4 Sudeste 10 Sudeste 0 -- -- 82
2019-08-20 03:00:00 23.5 4 Sudeste 11 Sudeste 0 -- -- 83
2019-08-20 02:00:00 23.9 4 Este 10 Sudeste 0 -- -- 81
2019-08-20 01:00:00 24.4 6 Este 15 Sudeste 0 -- -- 79
2019-08-20 00:00:00 24.9 10 Sudeste 23 Sudeste 0 -- -- 76
2019-08-19 23:00:00 25.6 9 Sudeste 19 Sudeste 0 -- -- 71
2019-08-19 22:00:00 26.7 10 Sudeste 23 Sudeste 0 -- -- 66
2019-08-19 21:00:00 28.4 9 Sudeste 32 Sudeste 0 -- -- 55
2019-08-19 20:00:00 30.4 18 Sudeste 35 Sudeste 0 -- -- 45
2019-08-19 19:00:00 32.3 18 Sudeste 38 Sudeste 0 -- -- 37
2019-08-19 18:00:00 33 21 Sudeste 46 Sudeste 0 -- -- 37
2019-08-19 17:00:00 34.3 23 Sudeste 45 Sudeste 0 -- -- 35
2019-08-19 16:00:00 35.5 25 Sudeste 42 Sudeste 0 -- -- 30
2019-08-19 15:00:00 36.6 19 Sudeste 33 Sudeste 0 -- -- 23
2019-08-19 14:00:00 36.2 12 Sudeste 25 Este 0 -- -- 19
2019-08-19 13:00:00 34.8 12 Nordeste 24 Nordeste 0 -- -- 23
2019-08-19 12:00:00 33.5 6 Nordeste 12 Nordeste 0 -- -- 24
2019-08-19 11:00:00 30.4 4 Nordeste 8 Este 0 -- -- 34
2019-08-19 10:00:00 27.9 3 Este 5 Este 0 -- -- 39
2019-08-19 09:00:00 24.5 3 Sur 6 Sur 0 -- -- 46
2019-08-19 08:00:00 21.6 4 Sudoeste 9 Sur 0 -- -- 53
2019-08-19 07:00:00 21.6 6 Sur 11 Sur 0 -- -- 53
2019-08-19 06:00:00 22.1 5 Sur 9 Sur 0 -- -- 52
2019-08-19 05:00:00 22.4 2 Sudeste 9 Sur 0 -- -- 51
2019-08-19 04:00:00 23.4 2 Sur 6 Sur 0 -- -- 50
2019-08-19 03:00:00 24.6 6 Sur 8 Sur 0 -- -- 49
2019-08-19 02:00:00 26.1 0 Calma 8 Sudeste 0 -- -- 47
2019-08-19 01:00:00 26.6 3 Sudoeste 10 Este 0 -- -- 49
2019-08-19 00:00:00 28.2 6 Sudeste 15 Sudeste 0 -- -- 37
2019-08-18 23:00:00 29.7 2 Nordeste 20 Sudeste 0 -- -- 34
2019-08-18 22:00:00 30.7 12 Sudeste 25 Sudeste 0 -- -- 31
2019-08-18 21:00:00 32.4 14 Sudeste 33 Sudeste 0 -- -- 26
2019-08-18 20:00:00 34.2 23 Sudeste 39 Sudeste 0 -- -- 23
2019-08-18 19:00:00 35.6 25 Sudeste 41 Sudeste 0 -- -- 23
2019-08-18 18:00:00 36.5 21 Sudeste 41 Este 0 -- -- 26
2019-08-18 17:00:00 37.4 22 Sudeste 39 Sudeste 0 -- -- 26
2019-08-18 16:00:00 37.6 18 Sudeste 35 Sudeste 0 -- -- 25
2019-08-18 15:00:00 37.2 19 Sudeste 30 Sudeste 0 -- -- 21
2019-08-18 14:00:00 36.8 10 Nordeste 20 Nordeste 0 -- -- 25
2019-08-18 13:00:00 34.6 9 Nordeste 16 Nordeste 0 -- -- 28
2019-08-18 12:00:00 32.6 4 Sur 12 Nordeste 0 -- -- 31
2019-08-18 11:00:00 29.5 5 Nordeste 9 Nordeste 0 -- -- 39
2019-08-18 10:00:00 26.3 5 Noroeste 9 Noroeste 0 -- -- 46
2019-08-18 09:00:00 23.3 5 Noroeste 8 Noroeste 0 -- -- 53
2019-08-18 08:00:00 21 4 Sur 6 Sur 0 -- -- 61
2019-08-18 07:00:00 20.6 4 Sur 8 Sudeste 0 -- -- 61
2019-08-18 06:00:00 21.7 7 Sudoeste 9 Sudoeste 0 -- -- 59
2019-08-18 05:00:00 22.9 0 Calma 10 Oeste 0 -- -- 56
2019-08-18 04:00:00 23.4 0 Calma 4 Norte 0 -- -- 58
2019-08-18 03:00:00 24.3 0 Calma 6 Sur 0 -- -- 54
2019-08-18 02:00:00 25.4 0 Calma 16 Sudeste 0 -- -- 50
2019-08-18 01:00:00 26.5 11 Sudeste 18 Sudeste 0 -- -- 47
2019-08-18 00:00:00 27.5 11 Sudeste 21 Este 0 -- -- 47
2019-08-17 23:00:00 29 10 Sudeste 22 Sudeste 0 -- -- 44
2019-08-17 22:00:00 30.4 9 Sudeste 24 Sudeste 0 -- -- 41
2019-08-17 21:00:00 32.7 15 Sudeste 33 Sudeste 0 -- -- 35
2019-08-17 20:00:00 34.7 21 Sudeste 38 Sudeste 0 -- -- 27
2019-08-17 19:00:00 36.1 19 Sudeste 41 Sudeste 0 -- -- 28
2019-08-17 18:00:00 36.8 22 Sudeste 44 Sudeste 0 -- -- 26
2019-08-17 17:00:00 36.9 21 Sudeste 36 Sudeste 0 -- -- 28
2019-08-17 16:00:00 37.1 20 Sudeste 36 Este 0 -- -- 25
2019-08-17 15:00:00 36.9 18 Sudeste 30 Este 0 -- -- 26
2019-08-17 14:00:00 34.6 12 Nordeste 23 Nordeste 0 -- -- 37
2019-08-17 13:00:00 32.4 7 Nordeste 14 Nordeste 0 -- -- 45
2019-08-17 12:00:00 30 6 Nordeste 12 Este 0 -- -- 53
2019-08-17 11:00:00 27.5 6 Sudeste 10 Sudeste 0 -- -- 56
2019-08-17 10:00:00 25.3 5 Sudeste 8 Sudeste 0 -- -- 65
2019-08-17 09:00:00 22.7 3 Este 4 Sudeste 0 -- -- 73
2019-08-17 08:00:00 20.3 0 Calma 4 Oeste 0 -- -- 79
2019-08-17 07:00:00 19.8 3 Sur 4 Sur 0 -- -- 83
2019-08-17 06:00:00 20.4 3 Noroeste 7 Sudeste 0 -- -- 84
2019-08-17 05:00:00 21.7 3 Sudeste 10 Sudeste 0 -- -- 80
2019-08-17 04:00:00 22 7 Sur 10 Sur 0 -- -- 78
2019-08-17 03:00:00 22.4 3 Noroeste 5 Oeste 0 -- -- 78
2019-08-17 02:00:00 22.9 0 Calma 5 Noroeste 0 -- -- 77
2019-08-17 01:00:00 23.5 3 Norte 15 Sudeste 0 -- -- 75
2019-08-17 00:00:00 24.9 12 Sudeste 22 Sudeste 0 -- -- 69
2019-08-16 23:00:00 25.9 14 Sudeste 22 Sudeste 0 -- -- 64
2019-08-16 22:00:00 27.2 15 Sudeste 35 Sudeste 0 -- -- 58
2019-08-16 21:00:00 28.9 20 Sudeste 40 Sudeste 0 -- -- 51
2019-08-16 20:00:00 31.1 23 Sudeste 44 Sudeste 0 -- -- 46
2019-08-16 19:00:00 32.6 26 Sudeste 45 Sudeste 0 -- -- 40
2019-08-16 18:00:00 33.7 24 Sudeste 42 Sudeste 0 -- -- 36
2019-08-16 17:00:00 34.4 21 Sudeste 40 Sudeste 0 -- -- 34
2019-08-16 16:00:00 34.2 19 Sudeste 35 Este 0 -- -- 33
2019-08-16 15:00:00 33.4 16 Sudeste 30 Sudeste 0 -- -- 34
2019-08-16 14:00:00 32.4 14 Sudeste 28 Sudeste 0 -- -- 36
2019-08-16 13:00:00 31 9 Este 20 Nordeste 0 -- -- 42
2019-08-16 12:00:00 28.7 6 Nordeste 15 Nordeste 0 -- -- 45
2019-08-16 11:00:00 27.2 5 Sudeste 13 Sudeste 0 -- -- 53
2019-08-16 10:00:00 24.7 4 Sur 8 Sur 0 -- -- 64
2019-08-16 09:00:00 21.5 3 Noroeste 6 Noroeste 0 -- -- 63
2019-08-16 08:00:00 19.5 3 Sudeste 6 Sur 0 -- -- 72
2019-08-16 07:00:00 19.8 2 Noroeste 7 Sur 0 -- -- 74
2019-08-16 06:00:00 20.6 2 Sudeste 6 Sur 0 -- -- 74
2019-08-16 05:00:00 21.5 0 Calma 7 Sudeste 0 -- -- 72
2019-08-16 04:00:00 22.3 4 Este 13 Sudeste 0 -- -- 69
2019-08-16 03:00:00 22.1 4 Nordeste 9 Nordeste 0 -- -- 70
2019-08-16 02:00:00 22.8 3 Nordeste 7 Nordeste 0 -- -- 71
2019-08-16 01:00:00 24 4 Este 10 Sudeste 0 -- -- 67
2019-08-16 00:00:00 25.4 7 Sudeste 15 Sudeste 0 -- -- 59
2019-08-15 23:00:00 26.5 7 Este 24 Sudeste 0 -- -- 53
2019-08-15 22:00:00 27.9 14 Sudeste 30 Sudeste 0 -- -- 46
2019-08-15 21:00:00 29.4 19 Sudeste 39 Sudeste 0 -- -- 37
2019-08-15 20:00:00 31.4 21 Sudeste 42 Sudeste 0 -- -- 34
2019-08-15 19:00:00 33.1 20 Sudeste 41 Sudeste 0 -- -- 31
2019-08-15 18:00:00 34.1 24 Sudeste 39 Sudeste 0 -- -- 33
2019-08-15 17:00:00 34.5 21 Sudeste 39 Sudeste 0 -- -- 32
2019-08-15 16:00:00 34 19 Este 36 Este 0 -- -- 32
2019-08-15 15:00:00 33.6 15 Sudeste 29 Sudeste 0 -- -- 34
2019-08-15 14:00:00 32.1 9 Nordeste 18 Nordeste 0 -- -- 46
2019-08-15 13:00:00 29.8 5 Nordeste 14 Este 0 -- -- 53
2019-08-15 12:00:00 27.5 4 Nordeste 10 Nordeste 0 -- -- 61
2019-08-15 11:00:00 24.5 4 Nordeste 9 Este 0 -- -- 72
2019-08-15 10:00:00 21.7 3 Sudeste 9 Sur 0 -- -- 84
2019-08-15 09:00:00 20.5 5 Sudeste 10 Sur 0 -- -- 88
2019-08-15 08:00:00 20.2 3 Sudeste 5 Sudeste 0 -- -- 84
2019-08-15 07:00:00 20 3 Sudeste 5 Sudeste 0 -- -- 82
2019-08-15 06:00:00 20.8 0 Calma 7 Sur 0 -- -- 83
2019-08-15 05:00:00 21.3 4 Sur 6 Noroeste 0 -- -- 81
2019-08-15 04:00:00 21.4 5 Noroeste 7 Oeste 0 -- -- 81
2019-08-15 03:00:00 22.5 3 Nordeste 15 Sudeste 0 -- -- 78
2019-08-15 02:00:00 23.6 9 Sudeste 16 Sudeste 0 -- -- 75
2019-08-15 01:00:00 24.2 10 Sudeste 17 Este 0 -- -- 69
2019-08-15 00:00:00 25.3 10 Sudeste 16 Sudeste 0 -- -- 61
2019-08-14 23:00:00 26.9 7 Este 20 Sudeste 0 -- -- 51
2019-08-14 22:00:00 27.9 12 Sudeste 30 Sudeste 0 -- -- 48
2019-08-14 21:00:00 29.3 17 Sudeste 34 Sudeste 0 -- -- 46
2019-08-14 20:00:00 30.8 21 Sudeste 37 Sudeste 0 -- -- 43
2019-08-14 19:00:00 32.4 21 Sudeste 33 Sudeste 0 -- -- 40
2019-08-14 18:00:00 34.1 14 Sudeste 24 Sudeste 0 -- -- 34
2019-08-14 17:00:00 34.6 9 Sudeste 26 Este 0 -- -- 32
2019-08-14 16:00:00 33.8 12 Este 24 Noroeste 0 -- -- 38
2019-08-14 15:00:00 32.9 9 Este 20 Este 0 -- -- 41
2019-08-14 14:00:00 30.8 9 Nordeste 22 Este 0 -- -- 49
2019-08-14 13:00:00 28.6 10 Nordeste 17 Norte 0 -- -- 55
2019-08-14 12:00:00 26.5 9 Nordeste 16 Nordeste 0 -- -- 61
2019-08-14 11:00:00 25.1 5 Nordeste 14 Este 0 -- -- 66
2019-08-14 10:00:00 23.3 5 Sudeste 10 Sudeste 0 -- -- 71
2019-08-14 09:00:00 22 2 Este 9 Sur 0 -- -- 76
2019-08-14 08:00:00 20.3 4 Sur 8 Sudoeste 0 -- -- 79
2019-08-14 07:00:00 20.1 0 Calma 3 Este 0 -- -- 82
2019-08-14 06:00:00 19.9 2 Noroeste 8 Oeste 0 -- -- 83
2019-08-14 05:00:00 20.2 3 Noroeste 5 Noroeste 0 -- -- 83
2019-08-14 04:00:00 20.7 3 Nordeste 10 Sudeste 0 -- -- 81
2019-08-14 03:00:00 21.2 6 Sudeste 12 Sudeste 0 -- -- 80
2019-08-14 02:00:00 21.7 6 Sudeste 15 Sudeste 0 -- -- 77
2019-08-14 01:00:00 22.2 9 Sudeste 18 Sudeste 0 -- -- 74
2019-08-14 00:00:00 22.8 9 Sudeste 18 Sudeste 0 -- -- 71
2019-08-13 23:00:00 23.6 8 Sudeste 16 Sudeste 0 -- -- 64
2019-08-13 22:00:00 24.3 10 Sudeste 28 Sudeste 0 -- -- 63
2019-08-13 21:00:00 25.4 15 Sudeste 34 Sudeste 0 -- -- 60
2019-08-13 20:00:00 26.4 21 Sudeste 42 Sudeste 0 -- -- 57
2019-08-13 19:00:00 27.7 23 Sudeste 39 Este 0 -- -- 52
2019-08-13 18:00:00 29.1 21 Sudeste 33 Sudeste 0 -- -- 45
2019-08-13 17:00:00 29.9 16 Sudeste 33 Sudeste 0 -- -- 43
2019-08-13 16:00:00 30.4 17 Sudeste 35 Sudeste 0 -- -- 43
2019-08-13 15:00:00 28.6 18 Este 37 Sudeste 0 -- -- 50
2019-08-13 14:00:00 29.3 14 Sudeste 30 Este 0 -- -- 48
2019-08-13 13:00:00 28.4 11 Sudeste 22 Sudeste 0 -- -- 48
2019-08-13 12:00:00 26.7 11 Sudeste 24 Este 0 -- -- 51
2019-08-13 11:00:00 26.2 10 Sudeste 18 Este 0 -- -- 54
2019-08-13 10:00:00 24 2 Nordeste 9 Nordeste 0 -- -- 66
2019-08-13 09:00:00 22.7 5 Norte 9 Norte 0 -- -- 69
2019-08-13 08:00:00 21.7 4 Norte 14 Nordeste 0 -- -- 73
2019-08-13 07:00:00 22.4 9 Este 18 Nordeste 0 -- -- 68
2019-08-13 06:00:00 22.5 5 Nordeste 9 Nordeste 0 -- -- 84
2019-08-13 05:00:00 22.5 3 Sur 6 Sudeste 0 -- -- 82
2019-08-13 04:00:00 22.3 0 Calma 11 Sudeste 0 -- -- 84
2019-08-13 03:00:00 22.7 0 Calma 8 Norte 0 -- -- 83
2019-08-13 02:00:00 23.7 8 Sudeste 19 Sudeste 0 -- -- 77
2019-08-13 01:00:00 23.8 11 Sudeste 22 Sudeste 0 -- -- 76
2019-08-13 00:00:00 24.4 12 Sudeste 23 Sudeste 0 -- -- 74
2019-08-12 23:00:00 25.2 9 Sudeste 21 Sudeste 0 -- -- 66
2019-08-12 22:00:00 25.9 7 Este 30 Sudeste 0 -- -- 63
2019-08-12 21:00:00 27 20 Sudeste 33 Sudeste 0 -- -- 59
2019-08-12 20:00:00 29.1 20 Sudeste 37 Este 0 -- -- 50
2019-08-12 19:00:00 30.4 21 Sudeste 43 Sudeste 0 -- -- 47
2019-08-12 18:00:00 33.9 7 Nordeste 16 Nordeste 0 -- -- 17
2019-08-12 17:00:00 33.3 6 Nordeste 15 Nordeste 0 -- -- 17
2019-08-12 16:00:00 33.1 5 Noroeste 20 Nordeste 0 -- -- 17
2019-08-12 15:00:00 32.7 6 Este 20 Este 0 -- -- 18
2019-08-12 14:00:00 32 6 Norte 26 Este 0 -- -- 20
2019-08-12 13:00:00 31.1 11 Norte 27 Noroeste 0 -- -- 20
2019-08-12 12:00:00 29.4 14 Noroeste 27 Noroeste 0 -- -- 22
2019-08-12 11:00:00 27.4 13 Noroeste 24 Noroeste 0 -- -- 25
2019-08-12 10:00:00 26.1 12 Noroeste 22 Noroeste 0 -- -- 29
2019-08-12 09:00:00 22.6 9 Noroeste 15 Norte 0 -- -- 36
2019-08-12 08:00:00 21.3 7 Noroeste 15 Oeste 0 -- -- 35
2019-08-12 07:00:00 21.4 9 Oeste 15 Noroeste 0 -- -- 34
2019-08-12 06:00:00 21.6 9 Noroeste 14 Oeste 0 -- -- 36
2019-08-12 05:00:00 22.7 8 Noroeste 12 Oeste 0 -- -- 34
2019-08-12 04:00:00 22.9 9 Noroeste 12 Noroeste 0 -- -- 32
2019-08-12 03:00:00 23.6 10 Noroeste 13 Noroeste 0.2 -- -- 33
2019-08-12 02:00:00 24.1 8 Noroeste 13 Noroeste 0 -- -- 44
2019-08-12 01:00:00 25.3 3 Nordeste 6 Noroeste 0 -- -- 80
2019-08-12 00:00:00 25.9 4 Noroeste 6 Noroeste 0 -- -- 78
2019-08-11 23:00:00 26.1 3 Nordeste 13 Este 0 -- -- 80
2019-08-11 22:00:00 27.2 6 Nordeste 12 Sudeste 1.2 -- -- 75
2019-08-11 21:00:00 31.2 6 Nordeste 25 Sudeste 0 -- -- 55
2019-08-11 20:00:00 33.2 16 Sudeste 29 Sudeste 0 -- -- 47
2019-08-11 19:00:00 34.2 16 Sudeste 35 Sudeste 0 -- -- 45
2019-08-11 18:00:00 36.7 13 Sudeste 28 Sudeste 0 -- -- 33
2019-08-11 17:00:00 36.9 11 Sudeste 23 Sudeste 0 -- -- 32
2019-08-11 16:00:00 37.2 12 Sudeste 20 Sudeste 0 -- -- 29
2019-08-11 15:00:00 36.4 7 Nordeste 19 Este 0 -- -- 29
2019-08-11 14:00:00 35.2 8 Este 16 Nordeste 0 -- -- 31
2019-08-11 13:00:00 33.5 9 Nordeste 18 Nordeste 0 -- -- 34
2019-08-11 12:00:00 31.6 4 Noroeste 15 Nordeste 0 -- -- 40
2019-08-11 11:00:00 29.6 5 Nordeste 11 Nordeste 0 -- -- 47
2019-08-11 10:00:00 27.5 2 Este 7 Sudeste 0 -- -- 50
2019-08-11 09:00:00 24.4 4 Sur 9 Sudeste 0 -- -- 55
2019-08-11 08:00:00 23.1 5 Sur 9 Sur 0 -- -- 57
2019-08-11 07:00:00 23 3 Sur 7 Sudoeste 0 -- -- 61
2019-08-11 06:00:00 23.1 3 Sur 7 Sur 0 -- -- 62
2019-08-11 05:00:00 24.1 0 Calma 10 Oeste 0 -- -- 62
2019-08-11 04:00:00 24.6 6 Oeste 10 Oeste 0 -- -- 61
2019-08-11 03:00:00 26 5 Sur 12 Sudeste 0 -- -- 58
2019-08-11 02:00:00 26.4 10 Sudeste 14 Sudeste 0 -- -- 55
2019-08-11 01:00:00 27.2 7 Sudeste 12 Sudeste 0 -- -- 52
2019-08-11 00:00:00 27.9 9 Sudeste 13 Sur 0 -- -- 49
2019-08-10 23:00:00 28.7 9 Sudeste 17 Sudeste 0 -- -- 49
2019-08-10 22:00:00 30.2 6 Sudeste 25 Sudeste 0 -- -- 46
2019-08-10 21:00:00 31.7 19 Sudeste 33 Este 0 -- -- 41
2019-08-10 20:00:00 33.4 19 Sudeste 35 Sudeste 0 -- -- 38
2019-08-10 19:00:00 34.8 19 Este 41 Este 0 -- -- 35
2019-08-10 18:00:00 36.1 21 Este 45 Sudeste 0 -- -- 32
2019-08-10 17:00:00 37.2 27 Sudeste 45 Sudeste 0 -- -- 29
2019-08-10 16:00:00 38.5 19 Sudeste 35 Sudeste 0 -- -- 21
2019-08-10 15:00:00 37.5 5 Nordeste 13 Nordeste 0 -- -- 26
2019-08-10 14:00:00 36.1 6 Nordeste 19 Este 0 -- -- 26
2019-08-10 13:00:00 33.7 6 Nordeste 16 Este 0 -- -- 36
2019-08-10 12:00:00 31.8 7 Norte 17 Norte 0 -- -- 39
2019-08-10 11:00:00 30.8 9 Nordeste 22 Nordeste 0 -- -- 43
2019-08-10 10:00:00 28.5 8 Nordeste 13 Nordeste 0 -- -- 47
2019-08-10 09:00:00 26.6 4 Norte 10 Noroeste 0 -- -- 46
2019-08-10 08:00:00 24 4 Sur 8 Oeste 0 -- -- 34
2019-08-10 07:00:00 24.2 6 Sur 8 Sur 0 -- -- 33
2019-08-10 06:00:00 25.6 4 Sur 9 Oeste 0 -- -- 31
2019-08-10 05:00:00 25.7 5 Sur 9 Oeste 0 -- -- 30
2019-08-10 04:00:00 27.5 4 Oeste 8 Noroeste 0 -- -- 29
2019-08-10 03:00:00 28.4 4 Noroeste 8 Noroeste 0 -- -- 27
2019-08-10 02:00:00 29.7 2 Noroeste 8 Noroeste 0 -- -- 23
2019-08-10 01:00:00 30.9 0 Calma 15 Oeste 0 -- -- 21
2019-08-10 00:00:00 31.8 2 Nordeste 10 Oeste 0 -- -- 20
2019-08-09 23:00:00 32.8 7 Oeste 19 Noroeste 0 -- -- 19
2019-08-09 22:00:00 33.8 3 Norte 10 Oeste 0 -- -- 19
2019-08-09 21:00:00 36.8 5 Noroeste 19 Noroeste 0 -- -- 16
2019-08-09 20:00:00 40.5 5 Sudeste 15 Oeste 0 -- -- 12
2019-08-09 19:00:00 41.7 6 Este 13 Nordeste 0 -- -- 10
2019-08-09 18:00:00 42.1 5 Nordeste 19 Norte 0 -- -- 10
2019-08-09 17:00:00 41.7 5 Sudeste 15 Nordeste 0 -- -- 10
2019-08-09 16:00:00 41.4 5 Este 18 Nordeste 0 -- -- 11
2019-08-09 15:00:00 40.2 11 Este 18 Este 0 -- -- 11
2019-08-09 14:00:00 38.9 8 Este 18 Este 0 -- -- 13
2019-08-09 13:00:00 37.8 6 Norte 17 Norte 0 -- -- 14
2019-08-09 12:00:00 35.1 4 Norte 12 Nordeste 0 -- -- 20
2019-08-09 11:00:00 32 3 Este 9 Sudeste 0 -- -- 26
2019-08-09 10:00:00 27.5 5 Sudeste 10 Sur 0 -- -- 31
2019-08-09 09:00:00 24.1 4 Sur 10 Sur 0 -- -- 38
2019-08-09 08:00:00 20.3 7 Sur 10 Sur 0 -- -- 47
2019-08-09 07:00:00 20.4 6 Sur 10 Sur 0 -- -- 46
2019-08-09 06:00:00 20.9 4 Sur 9 Sudoeste 0 -- -- 45
2019-08-09 05:00:00 21.9 3 Sur 9 Sudoeste 0 -- -- 45
2019-08-09 04:00:00 22.2 5 Sur 8 Sur 0 -- -- 45
2019-08-09 03:00:00 23.3 6 Sur 8 Sur 0 -- -- 43
2019-08-09 02:00:00 23.9 4 Sudoeste 13 Sur 0 -- -- 43
2019-08-09 01:00:00 25.8 3 Oeste 7 Sur 0 -- -- 38
2019-08-09 00:00:00 27.7 4 Sur 15 Sudeste 0 -- -- 35
2019-08-08 23:00:00 28.9 12 Sudeste 27 Sudeste 0 -- -- 33
2019-08-08 22:00:00 30 12 Sudeste 32 Sudeste 0 -- -- 32
2019-08-08 21:00:00 31.3 19 Sudeste 37 Sudeste 0 -- -- 31
2019-08-08 20:00:00 33.4 22 Sudeste 42 Sudeste 0 -- -- 29
2019-08-08 19:00:00 35.6 22 Sudeste 36 Este 0 -- -- 26
2019-08-08 18:00:00 37.7 18 Sudeste 36 Sudeste 0 -- -- 22
2019-08-08 17:00:00 38.5 10 Sudeste 26 Sudeste 0 -- -- 19
2019-08-08 16:00:00 38.4 6 Nordeste 19 Sudeste 0 -- -- 20
2019-08-08 15:00:00 37.3 5 Este 23 Nordeste 0 -- -- 20
2019-08-08 14:00:00 35.1 10 Nordeste 15 Nordeste 0 -- -- 23
2019-08-08 13:00:00 33.6 4 Este 12 Norte 0 -- -- 25
2019-08-08 12:00:00 33.2 5 Este 12 Este 0 -- -- 28
2019-08-08 11:00:00 30.9 5 Nordeste 11 Nordeste 0 -- -- 32
2019-08-08 10:00:00 29 3 Nordeste 10 Sudeste 0 -- -- 35
2019-08-08 09:00:00 25.7 4 Sur 12 Sur 0 -- -- 37
2019-08-08 08:00:00 23 6 Sur 10 Sudoeste 0 -- -- 42
2019-08-08 07:00:00 24.1 3 Sudeste 9 Oeste 0 -- -- 40
2019-08-08 06:00:00 24.3 3 Sur 7 Noroeste 0 -- -- 42
2019-08-08 05:00:00 25.4 3 Oeste 12 Oeste 0 -- -- 39
2019-08-08 04:00:00 25.8 0 Calma 12 Oeste 0 -- -- 42
2019-08-08 03:00:00 26.1 3 Sur 6 Oeste 0 -- -- 42
2019-08-08 02:00:00 26.7 5 Oeste 6 Noroeste 0 -- -- 41
2019-08-08 01:00:00 27.9 3 Sudeste 13 Sudeste 0 -- -- 38
2019-08-08 00:00:00 28.9 6 Sudeste 15 Sudeste 0 -- -- 38
2019-08-07 23:00:00 29.6 3 Este 10 Nordeste 0 -- -- 41
2019-08-07 22:00:00 30.2 5 Norte 14 Nordeste 0 -- -- 42
2019-08-07 21:00:00 32.9 5 Nordeste 20 Sudeste 0 -- -- 36
2019-08-07 20:00:00 35.3 9 Este 23 Oeste 0 -- -- 29
2019-08-07 19:00:00 38.6 10 Norte 23 Noroeste 0 -- -- 12
2019-08-07 18:00:00 39.5 7 Nordeste 14 Nordeste 0 -- -- 12
2019-08-07 17:00:00 39.8 5 Este 14 Norte 0 -- -- 12
2019-08-07 16:00:00 39.6 8 Nordeste 17 Noroeste 0 -- -- 12
2019-08-07 15:00:00 38.4 8 Norte 18 Nordeste 0 -- -- 15
2019-08-07 14:00:00 36.9 10 Nordeste 17 Nordeste 0 -- -- 18
2019-08-07 13:00:00 36 8 Nordeste 17 Norte 0 -- -- 19
2019-08-07 12:00:00 34.5 9 Norte 16 Noroeste 0 -- -- 22
2019-08-07 11:00:00 33 4 Nordeste 9 Este 0 -- -- 24
2019-08-07 10:00:00 29.4 6 Sudeste 12 Sur 0 -- -- 30
2019-08-07 09:00:00 24.8 6 Sudeste 11 Sur 0 -- -- 45
2019-08-07 08:00:00 21.2 7 Sur 9 Sur 0 -- -- 64
2019-08-07 07:00:00 21.8 5 Sur 12 Sur 0 -- -- 64
2019-08-07 06:00:00 22.4 7 Sur 13 Sur 0 -- -- 60
2019-08-07 05:00:00 22.8 5 Sur 11 Sur 0 -- -- 63
2019-08-07 04:00:00 23.6 0 Calma 8 Oeste 0 -- -- 65
2019-08-07 03:00:00 24.5 4 Norte 8 Oeste 0 -- -- 63
2019-08-07 02:00:00 26.4 0 Calma 11 Sudeste 0 -- -- 58
2019-08-07 01:00:00 27.5 5 Sudeste 8 Este 0 -- -- 55
2019-08-07 00:00:00 28.3 3 Nordeste 18 Sur 0 -- -- 50
2019-08-06 23:00:00 29.7 11 Sudeste 29 Sudeste 0 -- -- 49
2019-08-06 22:00:00 31.5 13 Sudeste 27 Sudeste 0 -- -- 42
2019-08-06 21:00:00 33.5 17 Sudeste 30 Sudeste 0 -- -- 38
2019-08-06 20:00:00 36.8 14 Sudeste 31 Este 0 -- -- 30
2019-08-06 19:00:00 37.8 15 Sudeste 32 Sudeste 0 -- -- 30
2019-08-06 18:00:00 38.6 14 Sudeste 31 Este 0 -- -- 28
2019-08-06 17:00:00 38.6 12 Nordeste 30 Este 0 -- -- 26
2019-08-06 16:00:00 38.3 11 Nordeste 37 Nordeste 0 -- -- 26
2019-08-06 15:00:00 38.1 11 Nordeste 22 Nordeste 0 -- -- 24
2019-08-06 14:00:00 36.3 10 Nordeste 16 Nordeste 0 -- -- 27
2019-08-06 13:00:00 34.8 5 Nordeste 10 Este 0 -- -- 34
2019-08-06 12:00:00 31.5 6 Nordeste 10 Nordeste 0 -- -- 50
2019-08-06 11:00:00 28.8 3 Nordeste 9 Este 0 -- -- 61
2019-08-06 10:00:00 26 4 Este 9 Noroeste 0 -- -- 73
2019-08-06 09:00:00 22.9 5 Noroeste 8 Noroeste 0 -- -- 82
2019-08-06 08:00:00 21.4 5 Noroeste 10 Oeste 0 -- -- 89
2019-08-06 07:00:00 21.3 0 Calma 5 Sudeste 0 -- -- 86
2019-08-06 06:00:00 22 0 Calma 2 Noroeste 0 -- -- 87
2019-08-06 05:00:00 22.7 2 Norte 10 Sur 0 -- -- 84
2019-08-06 04:00:00 23.1 0 Calma 5 Noroeste 0 -- -- 82
2019-08-06 03:00:00 23.3 3 Noroeste 9 Norte 0 -- -- 81
2019-08-06 02:00:00 23.4 5 Noroeste 10 Nordeste 0 -- -- 81
2019-08-06 01:00:00 24.1 4 Nordeste 15 Sudeste 0 -- -- 78
2019-08-06 00:00:00 26 8 Sudeste 27 Sudeste 0 -- -- 73
2019-08-05 23:00:00 26.6 12 Sudeste 31 Sudeste 0 -- -- 69
2019-08-05 22:00:00 27.9 17 Sudeste 33 Sudeste 0 -- -- 63
2019-08-05 21:00:00 28.6 2 Este 21 Sudeste 0 -- -- 66
2019-08-05 20:00:00 30.8 4 Este 35 Sudeste 0.4 -- -- 62
2019-08-05 19:00:00 31.4 17 Sudeste 37 Sudeste 2.6 -- -- 58
2019-08-05 18:00:00 34.5 19 Sudeste 39 Sudeste 0 -- -- 43
2019-08-05 17:00:00 36 19 Sudeste 36 Sudeste 0 -- -- 35
2019-08-05 16:00:00 36.4 20 Sudeste 32 Sudeste 0 -- -- 31
2019-08-05 15:00:00 36.5 10 Nordeste 24 Nordeste 0 -- -- 31
2019-08-05 14:00:00 34.3 13 Nordeste 23 Nordeste 0 -- -- 39
2019-08-05 13:00:00 32.6 9 Nordeste 17 Nordeste 0 -- -- 47
2019-08-05 12:00:00 30.9 4 Nordeste 13 Nordeste 0 -- -- 51
2019-08-05 11:00:00 28.3 5 Nordeste 13 Nordeste 0 -- -- 60
2019-08-05 10:00:00 27.2 5 Este 9 Este 0 -- -- 62
2019-08-05 09:00:00 25.1 3 Sudeste 8 Sur 0 -- -- 67
2019-08-05 08:00:00 22.7 5 Sur 12 Sur 0 -- -- 77
2019-08-05 07:00:00 22.4 6 Sur 9 Sur 0 -- -- 76
2019-08-05 06:00:00 22.9 0 Calma 6 Sur -- -- -- 75
2019-08-05 05:00:00 23.3 0 Calma 4 Sudeste 0 -- -- 76
2019-08-05 04:00:00 23.4 0 Calma 6 Norte 0 -- -- 76
2019-08-05 03:00:00 23.8 3 Norte 10 Nordeste 0 -- -- 75
2019-08-05 02:00:00 24.7 6 Nordeste 24 Sudeste 0 -- -- 72
2019-08-05 01:00:00 26 15 Sudeste 27 Sudeste 0 -- -- 66
2019-08-05 00:00:00 27.2 14 Sudeste 24 Este 0 -- -- 63
2019-08-04 23:00:00 28.6 8 Sudeste 20 Sudeste 0 -- -- 55
2019-08-04 22:00:00 30 16 Sudeste 28 Sudeste 0 -- -- 50
2019-08-04 21:00:00 31.6 18 Sudeste 32 Sudeste 0 -- -- 45
2019-08-04 20:00:00 33.2 20 Sudeste 35 Sudeste 0 -- -- 43
2019-08-04 19:00:00 34.8 19 Sudeste 32 Sudeste 0 -- -- 39
2019-08-04 18:00:00 35.7 21 Sudeste 37 Sudeste 0 -- -- 33
2019-08-04 17:00:00 36.5 17 Sudeste 26 Sudeste 0 -- -- 31
2019-08-04 16:00:00 36.9 10 Este 24 Este 0 -- -- 31
2019-08-04 15:00:00 36.3 10 Nordeste 19 Este 0 -- -- 31
2019-08-04 14:00:00 34.9 9 Nordeste 17 Nordeste 0 -- -- 33
2019-08-04 13:00:00 32.8 8 Nordeste 15 Nordeste 0 -- -- 39
2019-08-04 12:00:00 30.7 6 Nordeste 13 Nordeste 0 -- -- 44
2019-08-04 11:00:00 28.3 5 Nordeste 14 Sudeste 0 -- -- 51
2019-08-04 10:00:00 25.5 8 Sudeste 13 Este 0 -- -- 58
2019-08-04 09:00:00 23.2 5 Noroeste 10 Noroeste 0 -- -- 66
2019-08-04 08:00:00 20.5 3 Noroeste 11 Oeste 0 -- -- 72
2019-08-04 07:00:00 20.2 6 Oeste 12 Oeste 0 -- -- 74
2019-08-04 06:00:00 21.3 3 Sur 8 Sudoeste 0 -- -- 72
2019-08-04 05:00:00 21.5 0 Calma 4 Norte 0 -- -- 78
2019-08-04 04:00:00 21.9 0 Calma 8 Nordeste 0 -- -- 78
2019-08-04 03:00:00 22.7 4 Nordeste 17 Sudeste 0 -- -- 72
2019-08-04 02:00:00 23.6 12 Sudeste 21 Sudeste 0 -- -- 62
2019-08-04 01:00:00 24.2 12 Sudeste 22 Sudeste 0 -- -- 61
2019-08-04 00:00:00 25.2 15 Sudeste 28 Sudeste 0 -- -- 57
2019-08-03 23:00:00 26.2 13 Sudeste 27 Sudeste 0 -- -- 54
2019-08-03 22:00:00 27.4 15 Sudeste 31 Sudeste 0 -- -- 54
2019-08-03 21:00:00 28.8 16 Sudeste 33 Sudeste 0 -- -- 50
2019-08-03 20:00:00 30.7 22 Sudeste 32 Sudeste 0 -- -- 45
2019-08-03 19:00:00 31.5 15 Sudeste 26 Sudeste 0 -- -- 42
2019-08-03 18:00:00 33.3 18 Sudeste 36 Sudeste 0 -- -- 38
2019-08-03 17:00:00 34.1 16 Sudeste 29 Sudeste 0 -- -- 37
2019-08-03 16:00:00 34.5 13 Sudeste 25 Sudeste 0 -- -- 36
2019-08-03 15:00:00 33.5 12 Sudeste 24 Este 0 -- -- 37
2019-08-03 14:00:00 32.5 10 Sudeste 18 Sudeste 0 -- -- 41
2019-08-03 13:00:00 30.6 8 Nordeste 18 Este 0 -- -- 51
2019-08-03 12:00:00 29.4 8 Este 21 Sudeste 0 -- -- 55
2019-08-03 11:00:00 27.3 9 Este 19 Sudeste 0 -- -- 60
2019-08-03 10:00:00 25.7 5 Sudeste 8 Este 0 -- -- 69
2019-08-03 09:00:00 23.8 3 Este 7 Norte 0 -- -- 77
2019-08-03 08:00:00 21.8 0 Calma 6 Noroeste 0 -- -- 85
2019-08-03 07:00:00 21.5 4 Noroeste 6 Sudeste 0 -- -- 84
2019-08-03 06:00:00 22.3 5 Sudeste 11 Sudeste 0 -- -- 83
2019-08-03 05:00:00 22.4 6 Sudeste 10 Sudeste 0 -- -- 83
2019-08-03 04:00:00 22.5 5 Sudeste 9 Sudeste 0 -- -- 83
2019-08-03 03:00:00 22.6 3 Nordeste 7 Este 0 -- -- 83
2019-08-03 02:00:00 23.3 0 Calma 18 Sudeste 0 -- -- 81
2019-08-03 01:00:00 25.3 11 Sudeste 23 Sudeste 0 -- -- 70
2019-08-03 00:00:00 26.5 14 Sudeste 27 Sudeste 0 -- -- 65
2019-08-02 23:00:00 28 15 Sudeste 26 Sudeste 0 -- -- 55
2019-08-02 22:00:00 29.4 12 Sudeste 20 Sudeste 0 -- -- 51
2019-08-02 21:00:00 30.7 14 Sudeste 27 Sudeste 0 -- -- 47
2019-08-02 20:00:00 32.5 15 Sudeste 26 Sudeste 0 -- -- 42
2019-08-02 19:00:00 33.3 16 Sudeste 30 Sudeste 0 -- -- 40
2019-08-02 18:00:00 33.2 16 Sudeste 35 Sudeste 0 -- -- 41
2019-08-02 17:00:00 33.7 19 Sudeste 36 Este 0 -- -- 41
2019-08-02 16:00:00 33.9 19 Sudeste 33 Sudeste 0 -- -- 39
2019-08-02 15:00:00 33.8 17 Sudeste 33 Sudeste 0 -- -- 38
2019-08-02 14:00:00 33.2 15 Sudeste 32 Sudeste 0 -- -- 41
2019-08-02 13:00:00 32.6 10 Nordeste 19 Nordeste 0 -- -- 35
2019-08-02 12:00:00 30.9 6 Nordeste 12 Norte 0 -- -- 46
2019-08-02 11:00:00 27.9 4 Nordeste 12 Sur 0 -- -- 60
2019-08-02 10:00:00 25.9 3 Sudeste 10 Sudeste 0 -- -- 68
2019-08-02 09:00:00 23.1 5 Sudeste 12 Sudeste 0 -- -- 76
2019-08-02 08:00:00 21.6 4 Oeste 8 Oeste 0 -- -- 87
2019-08-02 07:00:00 20.6 5 Noroeste 8 Oeste 0 -- -- 87
2019-08-02 06:00:00 21 4 Sudoeste 8 Sur 0 -- -- 84
2019-08-02 05:00:00 21.9 2 Sudoeste 8 Oeste 0 -- -- 86
2019-08-02 04:00:00 21.9 6 Oeste 8 Noroeste 0 -- -- 86
2019-08-02 03:00:00 22.2 0 Calma 6 Nordeste 0 -- -- 85
2019-08-02 02:00:00 22.8 4 Nordeste 9 Este 0 -- -- 83
2019-08-02 01:00:00 23.9 8 Este 24 Sudeste 0 -- -- 74
2019-08-02 00:00:00 24.8 14 Sudeste 28 Este 0 -- -- 71
2019-08-01 23:00:00 25.9 15 Sudeste 33 Sudeste 0 -- -- 64
2019-08-01 22:00:00 27.5 21 Sudeste 34 Sudeste 0 -- -- 57
2019-08-01 21:00:00 30.3 23 Sudeste 33 Sudeste 0 -- -- 48
2019-08-01 20:00:00 33.4 20 Sudeste 31 Sudeste 0 -- -- 33
2019-08-01 19:00:00 35.3 13 Sudeste 25 Este 0 -- -- 30
2019-08-01 18:00:00 35.9 12 Nordeste 21 Nordeste 0 -- -- 30
2019-08-01 17:00:00 35.9 9 Este 18 Sudeste 0 -- -- 29
2019-08-01 16:00:00 34.9 5 Norte 14 Nordeste 0 -- -- 30
2019-08-01 15:00:00 33.5 9 Nordeste 17 Sudeste 0 -- -- 33
2019-08-01 14:00:00 31.7 9 Sudeste 19 Sudeste 0 -- -- 34
2019-08-01 13:00:00 30.8 6 Este 16 Sur 0 -- -- 41
2019-08-01 12:00:00 28.1 9 Sudeste 16 Este 0 -- -- 45
2019-08-01 11:00:00 25.7 4 Sudeste 14 Norte 0 -- -- 55
2019-08-01 10:00:00 23.7 6 Nordeste 12 Nordeste 0 -- -- 61
2019-08-01 09:00:00 21.2 4 Nordeste 11 Norte 0 -- -- 61
2019-08-01 08:00:00 18.9 5 Sur 8 Sur 0 -- -- 64
2019-08-01 07:00:00 18.8 3 Oeste 6 Sur 0 -- -- 64
2019-08-01 06:00:00 18.9 5 Sudoeste 9 Sur 0 -- -- 63
2019-08-01 05:00:00 19.4 4 Sudeste 8 Sudeste 0 -- -- 62
2019-08-01 04:00:00 20.4 5 Sudoeste 9 Sudoeste 0 -- -- 57
2019-08-01 03:00:00 21 4 Oeste 10 Sur 0 -- -- 59
2019-08-01 02:00:00 21.8 3 Sudeste 5 Este 0 -- -- 65
2019-08-01 01:00:00 22.8 4 Sur 7 Sur 0 -- -- 62
2019-08-01 00:00:00 23.4 7 Sudeste 17 Sudeste 0 -- -- 61
2019-07-31 23:00:00 24.3 10 Sudeste 24 Sudeste 0 -- -- 53
2019-07-31 22:00:00 25.6 11 Sudeste 17 Sur 0 -- -- 41
2019-07-31 21:00:00 27.2 13 Sudeste 27 Sudeste 0 -- -- 34
2019-07-31 20:00:00 28.7 16 Sudeste 26 Sudeste 0 -- -- 37
2019-07-31 19:00:00 29.8 9 Este 28 Nordeste 0 -- -- 36
2019-07-31 18:00:00 30 10 Este 24 Sudeste 0 -- -- 38
2019-07-31 17:00:00 29.8 14 Sudeste 24 Este 0 -- -- 39
2019-07-31 16:00:00 29.5 8 Este 31 Sudeste 0 -- -- 43
2019-07-31 15:00:00 28.5 21 Sudeste 34 Este 0 -- -- 47
2019-07-31 14:00:00 26 19 Sudeste 32 Sudeste 0 -- -- 57
2019-07-31 13:00:00 26.2 15 Sudeste 31 Sudeste 0 -- -- 58
2019-07-31 12:00:00 27.1 14 Este 33 Este 0 -- -- 50
2019-07-31 11:00:00 26.3 10 Sudeste 20 Sudeste 0 -- -- 53
2019-07-31 10:00:00 25.1 5 Norte 9 Nordeste 0 -- -- 63
2019-07-31 09:00:00 23.6 2 Este 10 Sudoeste 0 -- -- 70
2019-07-31 08:00:00 21.3 6 Sur 12 Sur 0 -- -- 78
2019-07-31 07:00:00 21 5 Oeste 11 Sudoeste 0 -- -- 82
2019-07-31 06:00:00 21.5 3 Sudoeste 12 Sudeste 0 -- -- 79
2019-07-31 05:00:00 21.9 7 Sudeste 13 Sudeste 0 -- -- 80
2019-07-31 04:00:00 22.5 6 Sudeste 16 Sudeste 0 -- -- 76
2019-07-31 03:00:00 23.1 13 Sudeste 23 Sur 0 -- -- 71
2019-07-31 02:00:00 23.7 9 Sudeste 15 Sudeste 0 -- -- 77
2019-07-31 01:00:00 23.7 8 Sudeste 16 Sudeste 0 -- -- 76
2019-07-31 00:00:00 24.2 12 Sudeste 18 Este 0 -- -- 73
2019-07-30 23:00:00 25 12 Sudeste 19 Sudeste 0 -- -- 66
2019-07-30 22:00:00 26 11 Sudeste 24 Sudeste 0 -- -- 61
2019-07-30 21:00:00 27.4 18 Sudeste 38 Sudeste 0 -- -- 54
2019-07-30 20:00:00 29.1 22 Sudeste 43 Sudeste 0 -- -- 49
2019-07-30 19:00:00 30.8 26 Sudeste 43 Sudeste 0 -- -- 40
2019-07-30 18:00:00 32.1 26 Sudeste 46 Sudeste 0 -- -- 37
2019-07-30 17:00:00 33.9 24 Sudeste 45 Sudeste 0 -- -- 30
2019-07-30 16:00:00 34.5 25 Sudeste 39 Sudeste 0 -- -- 31
2019-07-30 15:00:00 36.4 13 Este 34 Este 0 -- -- 23
2019-07-30 14:00:00 35.5 9 Nordeste 20 Este 0 -- -- 18
2019-07-30 13:00:00 34.6 6 Norte 14 Nordeste 0 -- -- 19
2019-07-30 12:00:00 33.2 6 Este 13 Nordeste 0 -- -- 23
2019-07-30 11:00:00 30.4 5 Nordeste 11 Este 0 -- -- 30
2019-07-30 10:00:00 26.8 4 Norte 8 Norte 0 -- -- 39
2019-07-30 09:00:00 24.1 4 Sudeste 6 Sudeste 0 -- -- 49
2019-07-30 08:00:00 21.7 3 Sudoeste 6 Sudoeste 0 -- -- 58
2019-07-30 07:00:00 20.6 2 Sudoeste 6 Sur 0 -- -- 62
2019-07-30 06:00:00 20.9 5 Sur 9 Sur 0 -- -- 62
2019-07-30 05:00:00 21.8 3 Sur 6 Sudeste 0 -- -- 57
2019-07-30 04:00:00 22.9 4 Sur 7 Sur 0 -- -- 57
2019-07-30 03:00:00 23.7 3 Sur 4 Sudeste 0 -- -- 59
2019-07-30 02:00:00 24.3 0 Calma 8 Norte 0 -- -- 57
2019-07-30 01:00:00 24.7 4 Norte 8 Norte 0 -- -- 56
2019-07-30 00:00:00 26.1 2 Nordeste 21 Sudeste 0 -- -- 50
2019-07-29 23:00:00 28 11 Sudeste 21 Sudeste 0 -- -- 39
2019-07-29 22:00:00 29 13 Sudeste 32 Sudeste 0 -- -- 40
2019-07-29 21:00:00 30.4 20 Sudeste 33 Sudeste 0 -- -- 38
2019-07-29 20:00:00 32.4 18 Sudeste 33 Sudeste 0 -- -- 36
2019-07-29 19:00:00 33.7 18 Sudeste 33 Sudeste 0 -- -- 34
2019-07-29 18:00:00 35 17 Sudeste 30 Sudeste 0 -- -- 29
2019-07-29 17:00:00 35.4 11 Sudeste 24 Este 0 -- -- 27
2019-07-29 16:00:00 35 9 Este 22 Sudeste 0 -- -- 28
2019-07-29 15:00:00 34.4 11 Nordeste 22 Nordeste 0 -- -- 31
2019-07-29 14:00:00 33.3 12 Nordeste 22 Nordeste 0 -- -- 31
2019-07-29 13:00:00 31.6 9 Nordeste 17 Nordeste 0 -- -- 38
2019-07-29 12:00:00 29.7 5 Este 13 Nordeste 0 -- -- 45
2019-07-29 11:00:00 26.9 6 Nordeste 12 Nordeste 0 -- -- 52
2019-07-29 10:00:00 25.5 5 Sudeste 8 Sudeste 0 -- -- 48
2019-07-29 09:00:00 23 4 Sur 8 Sudeste 0 -- -- 54
2019-07-29 08:00:00 20.7 3 Sudeste 7 Sur 0 -- -- 60
2019-07-29 07:00:00 19.9 5 Sur 9 Sur 0 -- -- 64
2019-07-29 06:00:00 20.3 5 Sur 7 Sur 0 -- -- 64
2019-07-29 05:00:00 21.1 0 Calma 7 Sudeste 0 -- -- 73
2019-07-29 04:00:00 21.6 0 Calma 7 Sur 0 -- -- 74
2019-07-29 03:00:00 22.7 0 Calma 17 Sudeste 0 -- -- 68
2019-07-29 02:00:00 22.7 4 Este 10 Este 0 -- -- 65
2019-07-29 01:00:00 23.6 5 Este 10 Sudeste 0 -- -- 63
2019-07-29 00:00:00 24.9 3 Nordeste 16 Sudeste 0 -- -- 52
2019-07-28 23:00:00 26 11 Sudeste 23 Sudeste 0 -- -- 39
2019-07-28 22:00:00 27.1 14 Sudeste 31 Sudeste 0 -- -- 35
2019-07-28 21:00:00 28.3 20 Sudeste 37 Sudeste 0 -- -- 34
2019-07-28 20:00:00 30.1 19 Sudeste 35 Sudeste 0 -- -- 34
2019-07-28 19:00:00 31.2 21 Sudeste 35 Sudeste 0 -- -- 34
2019-07-28 18:00:00 31.8 19 Sudeste 39 Este 0 -- -- 34
2019-07-28 17:00:00 33.6 10 Este 23 Este 0 -- -- 27
2019-07-28 16:00:00 32.9 14 Sudeste 25 Sudeste 0 -- -- 28
2019-07-28 15:00:00 32.5 8 Nordeste 23 Este 0 -- -- 28
2019-07-28 14:00:00 31.8 6 Sudeste 20 Sudeste 0 -- -- 29
2019-07-28 13:00:00 30.9 9 Sudeste 17 Nordeste 0 -- -- 30
2019-07-28 12:00:00 29 7 Norte 17 Nordeste 0 -- -- 34
2019-07-28 11:00:00 28.2 7 Nordeste 18 Norte 0 -- -- 39
2019-07-28 10:00:00 26.5 11 Norte 23 Oeste 0 -- -- 43
2019-07-28 09:00:00 24.9 3 Este 7 Este 0 -- -- 49
2019-07-28 08:00:00 22.6 5 Noroeste 8 Oeste 0 -- -- 54
2019-07-28 07:00:00 21.5 4 Oeste 7 Oeste 0 -- -- 56
2019-07-28 06:00:00 21.4 5 Noroeste 8 Oeste 0 -- -- 54
2019-07-28 05:00:00 22.1 0 Calma 6 Noroeste 0 -- -- 51
2019-07-28 04:00:00 22.5 3 Oeste 8 Noroeste 0 -- -- 50
2019-07-28 03:00:00 24.1 6 Oeste 12 Oeste 0 -- -- 45
2019-07-28 02:00:00 24.2 4 Oeste 16 Oeste 0 -- -- 45
2019-07-28 01:00:00 25.1 8 Oeste 28 Oeste 0 -- -- 43
2019-07-28 00:00:00 25.4 8 Oeste 22 Noroeste 0 -- -- 45
2019-07-27 23:00:00 26.1 6 Noroeste 27 Oeste 0 -- -- 44
2019-07-26 12:00:00 -- -- -- -- -- -- -- -- --
2019-07-26 11:00:00 -- -- -- -- -- -- -- -- --
2019-07-26 10:00:00 -- -- -- -- -- -- -- -- --
2019-07-26 09:00:00 23.7 2 Norte 8 Sur 0 -- -- 52
2019-07-26 08:00:00 21.8 4 Sudeste 10 Sur 0 -- -- 56
2019-07-26 07:00:00 20.7 6 Sur 9 Sudeste 0 -- -- 59
2019-07-26 06:00:00 21.1 4 Sur 8 Sur 0 -- -- 57
2019-07-26 05:00:00 21.4 0 Calma 8 Oeste 0 -- -- 58
2019-07-26 04:00:00 22.3 7 Oeste 9 Noroeste 0 -- -- 58
2019-07-26 03:00:00 23.4 2 Norte 9 Sudeste 0 -- -- 56
2019-07-26 02:00:00 24.8 6 Sudeste 16 Sudeste 0 -- -- 50
2019-07-26 01:00:00 25.4 8 Sudeste 17 Sudeste 0 -- -- 46
2019-07-26 00:00:00 26.4 9 Sudeste 21 Sudeste 0 -- -- 46